createdAt,value
2018-09-19T00:00:52.979Z,43.50
2018-09-19T00:03:21.851Z,44.00
2018-09-19T00:05:51.706Z,44.50
2018-09-19T00:08:20.586Z,44.80
2018-09-19T00:10:49.470Z,45.10
2018-09-19T00:13:18.351Z,45.50
2018-09-19T00:15:47.221Z,45.60
2018-09-19T00:18:16.106Z,45.90
2018-09-19T00:20:44.976Z,45.70
2018-09-19T00:23:13.872Z,45.70
2018-09-19T00:25:42.756Z,45.40
2018-09-19T00:28:11.655Z,45.00
2018-09-19T00:30:40.522Z,45.50
2018-09-19T00:33:09.407Z,45.90
2018-09-19T00:35:38.270Z,46.50
2018-09-19T00:38:07.387Z,47.00
2018-09-19T00:40:36.276Z,46.90
2018-09-19T00:43:05.195Z,47.00
2018-09-19T00:45:34.062Z,46.90
2018-09-19T00:48:03.023Z,46.60
2018-09-19T00:50:31.899Z,46.30
2018-09-19T00:53:00.778Z,46.70
2018-09-19T00:55:29.662Z,46.90
2018-09-19T00:57:58.654Z,46.70
2018-09-19T01:00:27.574Z,46.40
2018-09-19T01:02:56.502Z,46.80
2018-09-19T01:05:25.400Z,46.90
2018-09-19T01:07:54.298Z,47.00
2018-09-19T01:10:23.333Z,46.60
2018-09-19T01:12:52.207Z,47.20
2018-09-19T01:15:21.080Z,47.30
2018-09-19T01:17:49.983Z,47.80
2018-09-19T01:20:18.848Z,48.20
2018-09-19T01:22:47.751Z,48.20
2018-09-19T01:25:16.614Z,48.30
2018-09-19T01:27:45.481Z,47.90
2018-09-19T01:30:14.339Z,47.60
2018-09-19T01:32:43.206Z,48.30
2018-09-19T01:35:12.081Z,49.00
2018-09-19T01:37:40.923Z,50.00
2018-09-19T01:40:11.862Z,51.10
2018-09-19T01:42:40.746Z,51.20
2018-09-19T01:45:09.627Z,51.20
2018-09-19T01:47:38.510Z,50.00
2018-09-19T01:50:07.430Z,50.30
2018-09-19T01:52:36.298Z,51.20
2018-09-19T01:55:05.214Z,51.10
2018-09-19T01:57:34.096Z,50.90
2018-09-19T02:00:02.964Z,50.40
2018-09-19T02:02:31.845Z,50.30
2018-09-19T02:05:00.712Z,50.20
2018-09-19T02:07:29.601Z,49.70
2018-09-19T02:09:58.501Z,50.30
2018-09-19T02:12:27.418Z,51.30
2018-09-19T02:14:56.319Z,51.30
2018-09-19T02:17:25.229Z,51.30
2018-09-19T02:19:54.105Z,51.30
2018-09-19T02:22:22.996Z,51.30
2018-09-19T02:24:51.881Z,51.40
2018-09-19T02:27:20.754Z,51.40
2018-09-19T02:29:49.618Z,51.40
2018-09-19T02:32:18.691Z,52.00
2018-09-19T02:34:47.502Z,51.40
2018-09-19T02:37:16.387Z,51.80
2018-09-19T02:39:45.243Z,51.70
2018-09-19T02:42:14.119Z,51.70
2018-09-19T02:44:43.113Z,53.00
2018-09-19T02:47:11.919Z,53.00
2018-09-19T02:49:40.876Z,52.40
2018-09-19T02:52:09.745Z,52.70
2018-09-19T02:54:38.625Z,52.50
2018-09-19T02:57:07.612Z,52.30
2018-09-19T02:59:36.482Z,52.40
2018-09-19T03:02:05.364Z,52.90
2018-09-19T03:04:34.268Z,53.30
2018-09-19T03:07:03.126Z,52.90
2018-09-19T03:09:32.010Z,53.60
2018-09-19T03:12:00.874Z,53.90
2018-09-19T03:14:29.766Z,54.60
2018-09-19T03:16:58.698Z,55.50
2018-09-19T03:19:27.565Z,54.80
2018-09-19T03:21:56.439Z,54.80
2018-09-19T03:24:25.462Z,54.70
2018-09-19T03:26:54.358Z,54.40
2018-09-19T03:29:23.251Z,54.70
2018-09-19T03:31:52.114Z,55.40
2018-09-19T03:34:21.018Z,55.00
2018-09-19T03:36:49.877Z,55.50
2018-09-19T03:39:18.753Z,56.50
2018-09-19T03:41:47.623Z,56.40
2018-09-19T03:44:16.502Z,55.90
2018-09-19T03:46:45.361Z,55.90
2018-09-19T03:49:14.250Z,55.80
2018-09-19T03:51:43.122Z,55.70
2018-09-19T03:54:12.027Z,55.10
2018-09-19T03:56:40.934Z,56.40
2018-09-19T03:59:09.885Z,56.10
2018-09-19T04:01:38.747Z,56.10
2018-09-19T04:04:07.654Z,56.40
2018-09-19T04:06:36.511Z,55.80
2018-09-19T04:09:08.947Z,55.60
2018-09-19T04:11:37.941Z,56.20
2018-09-19T04:14:07.102Z,57.10
2018-09-19T04:16:35.942Z,56.90
2018-09-19T04:19:04.855Z,56.50
2018-09-19T04:21:33.730Z,56.90
2018-09-19T04:24:02.622Z,57.00
2018-09-19T04:26:31.486Z,56.50
2018-09-19T04:29:00.382Z,56.40
2018-09-19T04:31:29.275Z,56.40
2018-09-19T04:33:58.165Z,56.20
2018-09-19T04:36:27.063Z,56.10
2018-09-19T04:38:56.018Z,55.60
2018-09-19T04:41:24.906Z,56.10
2018-09-19T04:43:53.850Z,55.70
2018-09-19T04:46:22.746Z,55.90
2018-09-19T04:48:51.627Z,56.50
2018-09-19T04:51:20.568Z,57.40
2018-09-19T04:53:49.402Z,58.00
2018-09-19T04:56:18.310Z,58.50
2018-09-19T04:58:47.206Z,59.00
2018-09-19T05:01:16.063Z,59.40
2018-09-19T05:03:44.940Z,59.60
2018-09-19T05:06:13.822Z,59.80
2018-09-19T05:08:42.691Z,59.80
2018-09-19T05:11:11.584Z,59.70
2018-09-19T05:13:40.488Z,59.60
2018-09-19T05:16:09.375Z,60.20
2018-09-19T05:18:38.308Z,60.60
2018-09-19T05:21:07.206Z,60.30
2018-09-19T05:23:36.101Z,61.40
2018-09-19T05:26:05.011Z,61.80
2018-09-19T05:28:33.894Z,62.80
2018-09-19T05:31:02.749Z,62.30
2018-09-19T05:33:31.623Z,62.20
2018-09-19T05:36:00.514Z,62.80
2018-09-19T05:38:29.471Z,63.90
2018-09-19T05:40:58.398Z,64.50
2018-09-19T05:43:27.322Z,64.40
2018-09-19T05:45:56.251Z,64.70
2018-09-19T05:48:25.154Z,64.60
2018-09-19T05:50:54.100Z,64.80
2018-09-19T05:53:22.967Z,65.10
2018-09-19T05:55:51.881Z,65.40
2018-09-19T05:58:20.773Z,66.00
2018-09-19T06:00:49.591Z,65.20
2018-09-19T06:03:18.486Z,64.90
2018-09-19T06:05:47.452Z,65.20
2018-09-19T06:08:16.329Z,64.80
2018-09-19T06:10:45.212Z,65.00
2018-09-19T06:13:14.093Z,64.90
2018-09-19T06:15:42.952Z,64.70
2018-09-19T06:18:11.846Z,64.70
2018-09-19T06:20:40.708Z,64.20
2018-09-19T06:23:09.817Z,62.40
2018-09-19T06:25:38.699Z,62.40
2018-09-19T06:28:07.595Z,62.00
2018-09-19T06:30:36.515Z,62.10
2018-09-19T06:33:05.768Z,61.70
2018-09-19T06:35:34.462Z,61.00
2018-09-19T06:38:03.338Z,59.60
2018-09-19T06:40:32.284Z,59.00
2018-09-19T06:43:01.130Z,57.80
2018-09-19T06:45:30.052Z,57.50
2018-09-19T06:47:58.921Z,56.70
2018-09-19T06:50:27.859Z,54.50
2018-09-19T06:52:57.876Z,52.90
2018-09-19T06:55:26.857Z,52.40
2018-09-19T06:57:55.890Z,51.20
2018-09-19T07:00:24.816Z,50.60
2018-09-19T07:02:53.690Z,50.30
2018-09-19T07:05:22.550Z,50.10
2018-09-19T07:07:51.433Z,48.70
2018-09-19T07:10:20.325Z,49.00
2018-09-19T07:12:49.200Z,49.20
2018-09-19T07:15:18.088Z,49.10
2018-09-19T07:17:46.970Z,48.80
2018-09-19T07:20:15.852Z,48.60
2018-09-19T07:22:44.737Z,48.40
2018-09-19T07:25:13.650Z,48.00
2018-09-19T07:27:42.486Z,46.00
2018-09-19T07:30:11.379Z,46.00
2018-09-19T07:32:40.242Z,45.10
2018-09-19T07:35:09.180Z,45.20
2018-09-19T07:37:38.042Z,44.40
2018-09-19T07:40:06.975Z,44.60
2018-09-19T07:42:35.830Z,44.30
2018-09-19T07:45:04.762Z,43.20
2018-09-19T07:47:33.652Z,42.90
2018-09-19T07:50:02.558Z,42.90
2018-09-19T07:52:31.425Z,42.50
2018-09-19T07:55:00.295Z,41.60
2018-09-19T07:57:29.187Z,41.50
2018-09-19T07:59:58.090Z,41.40
2018-09-19T08:02:26.998Z,40.80
2018-09-19T08:04:58.850Z,40.70
2018-09-19T08:07:27.803Z,40.50
2018-09-19T08:09:56.762Z,39.60
2018-09-19T08:12:25.626Z,39.40
2018-09-19T08:14:54.532Z,39.70
2018-09-19T08:17:23.397Z,39.50
2018-09-19T08:19:52.278Z,38.40
2018-09-19T08:22:21.151Z,38.80
2018-09-19T08:24:50.023Z,39.00
2018-09-19T08:27:18.931Z,39.40
2018-09-19T08:29:47.799Z,38.20
2018-09-19T08:32:16.686Z,38.90
2018-09-19T08:34:45.562Z,39.60
2018-09-19T08:37:14.435Z,39.40
2018-09-19T08:39:43.319Z,39.40
2018-09-19T08:42:12.180Z,39.80
2018-09-19T08:44:41.058Z,39.40
2018-09-19T08:47:09.998Z,39.10
2018-09-19T08:49:38.882Z,40.70
2018-09-19T08:52:07.752Z,39.70
2018-09-19T08:54:36.665Z,38.50
2018-09-19T08:57:05.861Z,38.50
2018-09-19T08:59:34.701Z,38.60
2018-09-19T09:02:03.959Z,37.80
2018-09-19T09:04:32.847Z,37.40
2018-09-19T09:07:01.730Z,38.10
2018-09-19T09:09:30.623Z,38.10
2018-09-19T09:11:59.521Z,37.60
2018-09-19T09:14:28.430Z,37.50
2018-09-19T09:16:57.340Z,37.00
2018-09-19T09:19:26.257Z,37.50
2018-09-19T09:21:55.187Z,38.50
2018-09-19T09:24:24.077Z,37.40
2018-09-19T09:26:53.003Z,37.40
2018-09-19T09:29:21.810Z,36.70
2018-09-19T09:31:50.688Z,35.30
2018-09-19T09:34:19.616Z,34.00
2018-09-19T09:36:48.521Z,34.80
2018-09-19T09:39:17.352Z,35.00
2018-09-19T09:41:46.215Z,35.10
2018-09-19T09:44:15.099Z,35.10
2018-09-19T09:46:43.962Z,35.50
2018-09-19T09:49:12.839Z,35.50
2018-09-19T09:51:41.702Z,35.90
2018-09-19T09:54:10.598Z,35.90
2018-09-19T09:56:39.490Z,36.40
2018-09-19T09:59:08.385Z,35.50
2018-09-19T10:01:37.257Z,35.20
2018-09-19T10:04:06.578Z,36.00
2018-09-19T10:06:35.514Z,35.90
2018-09-19T10:09:05.905Z,36.50
2018-09-19T10:11:34.787Z,36.80
2018-09-19T10:14:03.706Z,37.20
2018-09-19T10:16:32.567Z,35.20
2018-09-19T10:19:01.500Z,34.40
2018-09-19T10:21:30.364Z,33.20
2018-09-19T10:23:59.285Z,33.00
2018-09-19T10:26:28.217Z,32.80
2018-09-19T10:28:57.118Z,32.50
2018-09-19T10:31:26.003Z,32.20
2018-09-19T10:33:54.944Z,33.70
2018-09-19T10:36:23.811Z,33.60
2018-09-19T10:38:52.731Z,33.60
2018-09-19T10:41:21.608Z,34.20
2018-09-19T10:43:50.533Z,34.10
2018-09-19T10:46:19.524Z,33.10
2018-09-19T10:48:48.422Z,33.80
2018-09-19T10:51:17.315Z,32.40
2018-09-19T10:53:46.198Z,31.80
2018-09-19T10:56:15.058Z,31.80
2018-09-19T10:58:44.003Z,31.60
2018-09-19T11:01:12.915Z,31.60
2018-09-19T11:03:41.765Z,30.10
2018-09-19T11:06:10.683Z,29.00
2018-09-19T11:08:39.558Z,28.80
2018-09-19T11:11:08.663Z,27.00
2018-09-19T11:13:37.622Z,26.00
2018-09-19T11:16:06.591Z,25.60
2018-09-19T11:18:35.486Z,24.80
2018-09-19T11:21:04.443Z,23.60
2018-09-19T11:23:33.334Z,23.70
2018-09-19T11:26:02.275Z,23.30
2018-09-19T11:28:31.166Z,22.70
2018-09-19T11:31:00.056Z,21.30
2018-09-19T11:33:28.953Z,21.10
2018-09-19T11:35:57.994Z,21.10
2018-09-19T11:38:26.986Z,21.00
2018-09-19T11:40:55.907Z,20.60
2018-09-19T11:43:24.898Z,21.60
2018-09-19T11:45:53.702Z,21.50
2018-09-19T11:48:22.618Z,21.20
2018-09-19T11:50:51.501Z,21.20
2018-09-19T11:53:26.879Z,21.70
2018-09-19T11:55:56.705Z,21.80
2018-09-19T11:58:25.764Z,20.80
2018-09-19T12:00:54.658Z,20.90
2018-09-19T12:03:23.542Z,20.40
2018-09-19T12:05:52.429Z,20.50
2018-09-19T12:08:21.594Z,18.50
2018-09-19T12:10:50.487Z,17.90
2018-09-19T12:13:19.347Z,19.20
2018-09-19T12:15:48.247Z,18.60
2018-09-19T12:18:17.194Z,18.00
2018-09-19T12:20:46.071Z,17.50
2018-09-19T12:23:14.941Z,17.40
2018-09-19T12:25:44.159Z,17.10
2018-09-19T12:28:13.024Z,17.30
2018-09-19T12:30:41.898Z,17.60
2018-09-19T12:33:10.782Z,17.50
2018-09-19T12:35:39.647Z,16.10
2018-09-19T12:38:08.502Z,16.30
2018-09-19T12:40:37.393Z,15.70
2018-09-19T12:43:06.278Z,16.20
2018-09-19T12:45:35.171Z,15.40
2018-09-19T12:48:04.074Z,14.20
2018-09-19T12:50:32.994Z,14.10
2018-09-19T12:53:01.884Z,14.10
2018-09-19T12:55:30.782Z,14.20
2018-09-19T12:57:59.686Z,13.70
2018-09-19T13:00:28.586Z,13.40
2018-09-19T13:02:57.442Z,13.00
2018-09-19T13:05:26.349Z,13.00
2018-09-19T13:07:55.262Z,12.20
2018-09-19T13:10:24.142Z,11.50
2018-09-19T13:12:53.031Z,11.30
2018-09-19T13:15:21.923Z,12.00
2018-09-19T13:17:50.781Z,10.70
2018-09-19T13:20:19.678Z,10.50
2018-09-19T13:22:48.555Z,10.80
2018-09-19T13:25:17.454Z,10.80
2018-09-19T13:27:46.351Z,10.80
2018-09-19T13:30:15.291Z,11.20
2018-09-19T13:32:44.175Z,11.60
2018-09-19T13:35:13.063Z,11.00
2018-09-19T13:37:41.935Z,12.70
2018-09-19T13:40:10.851Z,12.60
2018-09-19T13:42:39.767Z,12.40
2018-09-19T13:45:08.739Z,12.20
2018-09-19T13:47:37.756Z,12.30
2018-09-19T13:50:22.650Z,12.70
2018-09-19T13:52:51.527Z,12.40
2018-09-19T13:55:20.408Z,12.60
2018-09-19T13:57:49.258Z,11.70
2018-09-19T14:00:18.215Z,11.50
2018-09-19T14:02:47.074Z,12.50
2018-09-19T14:05:15.982Z,11.30
2018-09-19T14:07:44.838Z,12.10
2018-09-19T14:10:13.726Z,12.30
2018-09-19T14:12:42.598Z,12.10
2018-09-19T14:15:11.550Z,12.40
2018-09-19T14:17:40.419Z,12.40
2018-09-19T14:20:09.318Z,12.10
2018-09-19T14:22:38.187Z,12.00
2018-09-19T14:25:07.129Z,12.10
2018-09-19T14:27:35.996Z,11.60
2018-09-19T14:30:05.138Z,11.70
2018-09-19T14:32:34.065Z,11.50
2018-09-19T14:35:02.922Z,11.60
2018-09-19T14:37:31.918Z,11.30
2018-09-19T14:40:00.780Z,11.40
2018-09-19T14:42:29.654Z,11.40
2018-09-19T14:44:58.622Z,11.30
2018-09-19T14:47:27.503Z,11.30
2018-09-19T14:49:56.411Z,11.30
2018-09-19T14:52:25.306Z,11.30
2018-09-19T14:54:54.198Z,11.30
2018-09-19T14:57:23.099Z,11.70
2018-09-19T14:59:52.031Z,11.70
2018-09-19T15:02:21.022Z,11.90
2018-09-19T15:04:49.906Z,11.80
2018-09-19T15:07:18.786Z,11.70
2018-09-19T15:09:47.755Z,12.80
2018-09-19T15:12:16.618Z,12.20
2018-09-19T15:14:45.494Z,12.70
2018-09-19T15:17:14.594Z,12.90
2018-09-19T15:19:43.475Z,12.80
2018-09-19T15:22:12.353Z,12.70
2018-09-19T15:24:41.473Z,13.00
2018-09-19T15:27:10.383Z,13.10
2018-09-19T15:29:39.280Z,13.30
2018-09-19T15:32:08.150Z,13.40
2018-09-19T15:34:37.215Z,13.80
2018-09-19T15:37:06.438Z,14.90
2018-09-19T15:39:35.298Z,14.50
2018-09-19T15:42:04.256Z,14.50
2018-09-19T15:44:33.158Z,15.10
2018-09-19T15:47:02.043Z,15.30
2018-09-19T15:49:30.918Z,15.50
2018-09-19T15:51:59.819Z,16.30
2018-09-19T15:54:28.710Z,16.90
2018-09-19T15:56:57.618Z,17.70
2018-09-19T15:59:26.490Z,18.20
2018-09-19T16:01:55.433Z,19.20
2018-09-19T16:04:24.333Z,20.00
2018-09-19T16:06:53.230Z,19.90
2018-09-19T16:09:22.142Z,20.50
2018-09-19T16:11:51.003Z,21.10
2018-09-19T16:14:19.853Z,21.50
2018-09-19T16:16:48.747Z,22.00
2018-09-19T16:19:17.607Z,22.00
2018-09-19T16:21:46.490Z,22.30
2018-09-19T16:24:15.371Z,22.00
2018-09-19T16:26:44.238Z,21.80
2018-09-19T16:29:13.098Z,21.90
2018-09-19T16:31:41.971Z,22.00
2018-09-19T16:34:10.826Z,22.40
2018-09-19T16:36:39.698Z,22.90
2018-09-19T16:39:10.351Z,23.30
2018-09-19T16:41:39.262Z,23.40
2018-09-19T16:44:08.162Z,23.90
2018-09-19T16:46:37.738Z,23.70
2018-09-19T16:49:07.322Z,24.10
2018-09-19T16:51:36.193Z,24.00
2018-09-19T16:54:05.058Z,24.00
2018-09-19T16:56:34.051Z,24.00
2018-09-19T16:59:02.946Z,24.60
2018-09-19T17:01:31.834Z,24.80
2018-09-19T17:04:00.702Z,24.80
2018-09-19T17:06:29.618Z,25.30
2018-09-19T17:08:58.516Z,26.00
2018-09-19T17:11:27.430Z,26.40
2018-09-19T17:13:56.322Z,26.40
2018-09-19T17:16:25.260Z,26.50
2018-09-19T17:18:54.239Z,27.00
2018-09-19T17:21:23.145Z,27.20
2018-09-19T17:23:51.998Z,27.20
2018-09-19T17:26:20.882Z,27.50
2018-09-19T17:28:49.786Z,27.80
2018-09-19T17:31:18.797Z,28.10
2018-09-19T17:33:47.806Z,28.10
2018-09-19T17:36:16.774Z,28.30
2018-09-19T17:38:45.646Z,28.60
2018-09-19T17:41:14.534Z,28.80
2018-09-19T17:43:43.462Z,29.30
2018-09-19T17:46:13.198Z,29.60
2018-09-19T17:48:42.093Z,29.60
2018-09-19T17:51:10.966Z,29.70
2018-09-19T17:53:39.854Z,29.90
2018-09-19T17:56:08.857Z,30.00
2018-09-19T17:58:37.967Z,30.20
2018-09-19T18:01:06.946Z,30.10
2018-09-19T18:03:36.071Z,30.60
2018-09-19T18:06:05.047Z,31.10
2018-09-19T18:08:33.839Z,31.30
2018-09-19T18:11:02.713Z,31.50
2018-09-19T18:13:31.587Z,31.60
2018-09-19T18:16:00.578Z,31.70
2018-09-19T18:18:29.490Z,32.70
2018-09-19T18:20:58.381Z,32.10
2018-09-19T18:23:27.303Z,32.30
2018-09-19T18:25:56.223Z,32.70
2018-09-19T18:28:25.086Z,32.80
2018-09-19T18:30:54.095Z,32.70
2018-09-19T18:33:22.967Z,33.10
2018-09-19T18:35:51.836Z,33.30
2018-09-19T18:38:20.717Z,33.40
2018-09-19T18:40:49.600Z,33.30
2018-09-19T18:43:18.448Z,33.70
2018-09-19T18:45:47.331Z,33.80
2018-09-19T18:48:16.182Z,34.30
2018-09-19T18:50:45.106Z,33.50
2018-09-19T18:53:13.958Z,33.90
2018-09-19T18:55:42.846Z,34.00
2018-09-19T18:58:11.699Z,34.00
2018-09-19T19:00:40.710Z,34.00
2018-09-19T19:03:09.574Z,34.00
2018-09-19T19:05:38.479Z,34.20
2018-09-19T19:08:07.354Z,34.40
2018-09-19T19:10:36.231Z,34.40
2018-09-19T19:13:05.099Z,34.40
2018-09-19T19:15:33.979Z,35.10
2018-09-19T19:18:02.843Z,35.50
2018-09-19T19:20:31.734Z,35.60
2018-09-19T19:23:00.631Z,35.50
2018-09-19T19:25:32.407Z,35.40
2018-09-19T19:28:01.274Z,35.90
2018-09-19T19:30:30.254Z,36.30
2018-09-19T19:32:59.106Z,36.20
2018-09-19T19:35:28.084Z,36.90
2018-09-19T19:37:57.187Z,37.90
2018-09-19T19:40:26.493Z,37.90
2018-09-19T19:42:55.514Z,37.90
2018-09-19T19:45:24.403Z,37.90
2018-09-19T19:47:53.294Z,37.80
2018-09-19T19:50:22.166Z,37.70
2018-09-19T19:52:51.198Z,39.30
2018-09-19T19:55:20.078Z,40.00
2018-09-19T19:57:48.955Z,40.70
2018-09-19T20:00:17.820Z,40.90
2018-09-19T20:02:46.701Z,41.10
2018-09-19T20:05:15.561Z,41.40
2018-09-19T20:07:44.424Z,41.20
2018-09-19T20:10:13.413Z,40.80
2018-09-19T20:12:42.325Z,41.20
2018-09-19T20:15:11.147Z,41.20
2018-09-19T20:17:40.079Z,42.20
2018-09-19T20:20:09.179Z,43.30
2018-09-19T20:22:38.050Z,44.10
2018-09-19T20:25:06.908Z,44.30
2018-09-19T20:27:35.794Z,44.80
2018-09-19T20:30:04.789Z,45.00
2018-09-19T20:32:33.642Z,44.30
2018-09-19T20:35:02.580Z,44.40
2018-09-19T20:37:31.464Z,44.20
2018-09-19T20:40:00.438Z,44.50
2018-09-19T20:42:29.414Z,44.20
2018-09-19T20:44:58.298Z,44.20
2018-09-19T20:47:27.246Z,44.70
2018-09-19T20:49:56.174Z,45.50
2018-09-19T20:52:25.079Z,45.50
2018-09-19T20:54:53.947Z,45.40
2018-09-19T20:57:22.846Z,45.30
2018-09-19T20:59:51.690Z,45.30
2018-09-19T21:02:20.560Z,45.90
2018-09-19T21:04:49.506Z,46.10
2018-09-19T21:07:18.307Z,46.70
2018-09-19T21:09:47.166Z,47.20
2018-09-19T21:12:16.022Z,47.80
2018-09-19T21:14:44.883Z,49.00
2018-09-19T21:17:13.810Z,49.30
2018-09-19T21:19:42.674Z,50.10
2018-09-19T21:22:11.699Z,51.60
2018-09-19T21:24:40.494Z,51.60
2018-09-19T21:27:09.577Z,51.10
2018-09-19T21:29:38.435Z,50.80
2018-09-19T21:32:07.365Z,50.70
2018-09-19T21:34:36.194Z,51.00
2018-09-19T21:37:05.111Z,51.40
2018-09-19T21:39:34.019Z,51.10
2018-09-19T21:42:02.918Z,50.70
2018-09-19T21:44:31.788Z,50.20
2018-09-19T21:47:00.691Z,49.70
2018-09-19T21:49:29.591Z,50.70
2018-09-19T21:51:58.486Z,50.40
2018-09-19T21:54:27.374Z,51.10
2018-09-19T21:56:56.266Z,51.20
2018-09-19T21:59:25.202Z,51.80
2018-09-19T22:01:58.471Z,52.20
2018-09-19T22:04:27.710Z,52.10
2018-09-19T22:06:56.731Z,52.50
2018-09-19T22:09:25.601Z,53.20
2018-09-19T22:11:54.502Z,54.00
2018-09-19T22:14:23.383Z,54.30
2018-09-19T22:16:52.382Z,53.70
2018-09-19T22:19:21.254Z,53.50
2018-09-19T22:21:50.134Z,54.00
2018-09-19T22:24:19.015Z,53.70
2018-09-19T22:26:47.947Z,54.30
2018-09-19T22:29:16.815Z,54.40
2018-09-19T22:31:45.698Z,56.00
2018-09-19T22:34:14.575Z,57.10
2018-09-19T22:36:43.463Z,58.10
2018-09-19T22:39:12.318Z,58.80
2018-09-19T22:41:41.245Z,58.50
2018-09-19T22:44:10.109Z,58.50
2018-09-19T22:46:38.995Z,59.00
2018-09-19T22:49:08.090Z,58.10
2018-09-19T22:51:36.983Z,57.70
2018-09-19T22:54:05.922Z,57.70
2018-09-19T22:56:34.815Z,57.70
2018-09-19T22:59:03.787Z,58.10
2018-09-19T23:01:32.743Z,61.30
2018-09-19T23:04:01.651Z,61.70
2018-09-19T23:06:30.554Z,61.30
2018-09-19T23:08:59.450Z,60.40
2018-09-19T23:11:28.355Z,61.30
2018-09-19T23:13:57.341Z,60.50
2018-09-19T23:16:26.250Z,60.30
2018-09-19T23:19:01.646Z,61.30
2018-09-19T23:21:30.558Z,61.20
2018-09-19T23:23:59.463Z,61.70
2018-09-19T23:26:28.386Z,61.20
2018-09-19T23:28:57.442Z,61.30
2018-09-19T23:31:26.474Z,62.20
2018-09-19T23:33:55.374Z,61.90
2018-09-19T23:36:24.271Z,66.10
2018-09-19T23:38:53.147Z,65.50
2018-09-19T23:41:22.027Z,69.20
2018-09-19T23:43:50.899Z,69.70
2018-09-19T23:46:19.781Z,70.30
2018-09-19T23:48:48.663Z,71.90
2018-09-19T23:51:17.530Z,72.10
2018-09-19T23:53:46.422Z,71.50
2018-09-19T23:56:15.319Z,70.30
2018-09-19T23:58:44.203Z,70.30
